createdAt,value
2023-07-29T00:02:01.596Z,96492.00
2023-07-29T00:04:28.847Z,96491.00
2023-07-29T00:06:56.148Z,96477.00
2023-07-29T00:09:23.379Z,96485.00
2023-07-29T00:11:50.577Z,96483.00
2023-07-29T00:14:17.813Z,96475.00
2023-07-29T00:16:45.048Z,96462.00
2023-07-29T00:19:12.281Z,96467.00
2023-07-29T00:21:39.583Z,96473.00
2023-07-29T00:24:06.803Z,96462.00
2023-07-29T00:26:34.326Z,96472.00
2023-07-29T00:29:01.783Z,96464.00
2023-07-29T00:31:29.050Z,96462.00
2023-07-29T00:33:56.445Z,96463.00
2023-07-29T00:36:23.620Z,96463.00
2023-07-29T00:38:50.813Z,96463.00
2023-07-29T00:41:18.093Z,96460.00
2023-07-29T00:43:45.458Z,96459.00
2023-07-29T00:46:14.146Z,96462.00
2023-07-29T00:48:41.631Z,96463.00
2023-07-29T00:51:08.957Z,96466.00
2023-07-29T00:53:36.201Z,96459.00
2023-07-29T00:56:03.519Z,96461.00
2023-07-29T00:58:30.709Z,96458.00
2023-07-29T01:00:57.959Z,96447.00
2023-07-29T01:03:25.298Z,96451.00
2023-07-29T01:05:57.576Z,96451.00
2023-07-29T01:08:50.170Z,96451.00
2023-07-29T01:11:37.411Z,96445.00
2023-07-29T01:14:59.280Z,96434.00
2023-07-29T01:17:56.722Z,96439.00
2023-07-29T01:23:54.582Z,96444.00
2023-07-29T01:26:23.956Z,96436.00
2023-07-29T01:28:51.155Z,96437.00
2023-07-29T01:31:31.721Z,96436.00
2023-07-29T01:34:32.675Z,96435.00
2023-07-29T01:37:03.410Z,96435.00
2023-07-29T01:39:31.900Z,96437.00
2023-07-29T01:41:59.254Z,96444.00
2023-07-29T01:44:27.330Z,96436.00
2023-07-29T01:46:56.081Z,96442.00
2023-07-29T01:49:23.314Z,96435.00
2023-07-29T01:51:50.537Z,96423.00
2023-07-29T01:54:17.758Z,96425.00
2023-07-29T01:56:44.931Z,96421.00
2023-07-29T01:59:12.502Z,96426.00
2023-07-29T02:01:39.733Z,96426.00
2023-07-29T02:04:07.032Z,96424.00
2023-07-29T02:06:34.582Z,96420.00
2023-07-29T02:09:01.996Z,96425.00
2023-07-29T02:11:29.398Z,96423.00
2023-07-29T02:13:56.992Z,96418.00
2023-07-29T02:16:24.871Z,96419.00
2023-07-29T02:18:55.016Z,96428.00
2023-07-29T02:21:23.470Z,96421.00
2023-07-29T02:23:50.700Z,96421.00
2023-07-29T02:26:18.576Z,96412.00
2023-07-29T02:28:46.094Z,96415.00
2023-07-29T02:31:21.850Z,96411.00
2023-07-29T02:33:49.180Z,96407.00
2023-07-29T02:36:16.636Z,96419.00
2023-07-29T02:38:44.525Z,96412.00
2023-07-29T02:41:13.905Z,96416.00
2023-07-29T02:43:42.355Z,96415.00
2023-07-29T02:46:10.078Z,96408.00
2023-07-29T02:48:37.312Z,96396.00
2023-07-29T02:51:04.603Z,96403.00
2023-07-29T02:53:31.818Z,96405.00
2023-07-29T02:55:59.075Z,96408.00
2023-07-29T02:58:27.374Z,96408.00
2023-07-29T03:00:54.695Z,96400.00
2023-07-29T03:03:22.189Z,96398.00
2023-07-29T03:05:49.569Z,96404.00
2023-07-29T03:08:16.822Z,96395.00
2023-07-29T03:10:44.076Z,96393.00
2023-07-29T03:13:11.855Z,96389.00
2023-07-29T03:15:39.156Z,96385.00
2023-07-29T03:18:06.408Z,96379.00
2023-07-29T03:20:33.713Z,96377.00
2023-07-29T03:23:00.912Z,96381.00
2023-07-29T03:25:28.144Z,96374.00
2023-07-29T03:27:55.610Z,96377.00
2023-07-29T03:30:23.519Z,96389.00
2023-07-29T03:32:51.371Z,96378.00
2023-07-29T03:35:18.725Z,96384.00
2023-07-29T03:37:45.947Z,96381.00
2023-07-29T03:40:13.291Z,96387.00
2023-07-29T03:42:40.520Z,96387.00
2023-07-29T03:45:08.154Z,96385.00
2023-07-29T03:47:35.380Z,96391.00
2023-07-29T03:50:02.732Z,96388.00
2023-07-29T03:52:30.025Z,96386.00
2023-07-29T03:54:57.233Z,96387.00
2023-07-29T03:57:24.457Z,96385.00
2023-07-29T03:59:51.695Z,96385.00
2023-07-29T04:02:18.938Z,96393.00
2023-07-29T04:04:48.561Z,96380.00
2023-07-29T04:07:16.063Z,96381.00
2023-07-29T04:09:44.670Z,96394.00
2023-07-29T04:12:12.118Z,96387.00
2023-07-29T04:14:39.472Z,96387.00
2023-07-29T04:17:06.874Z,96381.00
2023-07-29T04:19:34.137Z,96388.00
2023-07-29T04:22:01.462Z,96399.00
2023-07-29T04:24:28.981Z,96403.00
2023-07-29T04:26:56.242Z,96393.00
2023-07-29T04:29:26.460Z,96399.00
2023-07-29T04:31:53.794Z,96393.00
2023-07-29T04:34:21.318Z,96403.00
2023-07-29T04:36:49.066Z,96400.00
2023-07-29T04:39:16.641Z,96405.00
2023-07-29T04:41:43.876Z,96413.00
2023-07-29T04:44:11.328Z,96411.00
2023-07-29T04:46:39.600Z,96419.00
2023-07-29T04:49:06.945Z,96425.00
2023-07-29T04:51:34.163Z,96431.00
2023-07-29T04:54:01.451Z,96434.00
2023-07-29T04:56:28.665Z,96420.00
2023-07-29T04:59:09.046Z,96418.00
2023-07-29T05:01:40.757Z,96424.00
2023-07-29T05:04:15.907Z,96429.00
2023-07-29T05:06:51.613Z,96431.00
2023-07-29T05:09:26.156Z,96422.00
2023-07-29T05:12:18.334Z,96421.00
2023-07-29T05:15:05.593Z,96431.00
2023-07-29T05:17:46.368Z,96419.00
2023-07-29T05:20:18.385Z,96423.00
2023-07-29T05:23:11.032Z,96423.00
2023-07-29T05:25:38.298Z,96427.00
2023-07-29T05:28:05.618Z,96438.00
2023-07-29T05:30:38.195Z,96433.00
2023-07-29T05:33:05.920Z,96457.00
2023-07-29T05:35:33.292Z,96451.00
2023-07-29T05:38:00.582Z,96465.00
2023-07-29T05:40:27.800Z,96463.00
2023-07-29T05:42:55.001Z,96467.00
2023-07-29T05:45:22.261Z,96478.00
2023-07-29T05:47:50.282Z,96469.00
2023-07-29T05:50:17.598Z,96474.00
2023-07-29T05:52:44.820Z,96468.00
2023-07-29T05:55:12.058Z,96466.00
2023-07-29T05:57:40.626Z,96465.00
2023-07-29T06:00:10.650Z,96473.00
2023-07-29T06:02:37.871Z,96488.00
2023-07-29T06:05:05.518Z,96491.00
2023-07-29T06:07:34.753Z,96484.00
2023-07-29T06:10:02.230Z,96474.00
2023-07-29T06:12:29.492Z,96477.00
2023-07-29T06:14:56.742Z,96468.00
2023-07-29T06:17:23.994Z,96477.00
2023-07-29T06:19:51.381Z,96468.00
2023-07-29T06:22:18.565Z,96471.00
2023-07-29T06:24:45.805Z,96483.00
2023-07-29T06:27:13.041Z,96466.00
2023-07-29T06:29:40.261Z,96464.00
2023-07-29T06:32:07.818Z,96464.00
2023-07-29T06:34:35.000Z,96489.00
2023-07-29T06:37:02.228Z,96469.00
2023-07-29T06:39:29.433Z,96472.00
2023-07-29T06:41:56.665Z,96479.00
2023-07-29T06:44:23.896Z,96492.00
2023-07-29T06:46:51.326Z,96486.00
2023-07-29T06:49:18.667Z,96490.00
2023-07-29T06:51:45.903Z,96478.00
2023-07-29T06:54:13.105Z,96484.00
2023-07-29T06:56:40.329Z,96471.00
2023-07-29T06:59:07.523Z,96476.00
2023-07-29T07:01:35.774Z,96475.00
2023-07-29T07:04:03.073Z,96479.00
2023-07-29T07:06:30.312Z,96466.00
2023-07-29T07:08:57.498Z,96476.00
2023-07-29T07:11:24.777Z,96479.00
2023-07-29T07:13:52.006Z,96474.00
2023-07-29T07:16:19.235Z,96471.00
2023-07-29T07:18:46.797Z,96478.00
2023-07-29T07:21:14.032Z,96472.00
2023-07-29T07:23:41.581Z,96462.00
2023-07-29T07:26:08.777Z,96466.00
2023-07-29T07:28:36.032Z,96462.00
2023-07-29T07:31:03.359Z,96471.00
2023-07-29T07:33:30.590Z,96466.00
2023-07-29T07:35:57.810Z,96469.00
2023-07-29T07:38:25.017Z,96475.00
2023-07-29T07:40:58.445Z,96463.00
2023-07-29T07:43:26.013Z,96463.00
2023-07-29T07:45:59.801Z,96462.00
2023-07-29T07:48:27.899Z,96470.00
2023-07-29T07:50:55.158Z,96468.00
2023-07-29T07:53:22.499Z,96465.00
2023-07-29T07:55:49.724Z,96465.00
2023-07-29T07:58:17.089Z,96459.00
2023-07-29T08:00:44.305Z,96456.00
2023-07-29T08:03:11.810Z,96453.00
2023-07-29T08:05:39.124Z,96463.00
2023-07-29T08:08:06.313Z,96453.00
2023-07-29T08:10:33.574Z,96455.00
2023-07-29T08:13:00.905Z,96453.00
2023-07-29T08:15:28.180Z,96459.00
2023-07-29T08:17:55.454Z,96460.00
2023-07-29T08:20:22.771Z,96457.00
2023-07-29T08:22:50.047Z,96460.00
2023-07-29T08:25:17.273Z,96456.00
2023-07-29T08:27:44.491Z,96455.00
2023-07-29T08:30:11.925Z,96453.00
2023-07-29T08:32:39.162Z,96463.00
2023-07-29T08:35:06.740Z,96467.00
2023-07-29T08:37:34.516Z,96462.00
2023-07-29T08:40:01.785Z,96470.00
2023-07-29T08:42:32.866Z,96465.00
2023-07-29T08:45:08.039Z,96462.00
2023-07-29T08:47:35.337Z,96461.00
2023-07-29T08:50:03.964Z,96462.00
2023-07-29T08:52:33.313Z,96470.00
2023-07-29T08:55:00.852Z,96462.00
2023-07-29T08:57:28.513Z,96475.00
2023-07-29T08:59:56.770Z,96474.00
2023-07-29T09:02:24.306Z,96479.00
2023-07-29T09:04:51.621Z,96465.00
2023-07-29T09:07:19.126Z,96476.00
2023-07-29T09:09:46.351Z,96468.00
2023-07-29T09:12:13.587Z,96471.00
2023-07-29T09:14:40.786Z,96488.00
2023-07-29T09:17:11.680Z,96476.00
2023-07-29T09:19:39.116Z,96477.00
2023-07-29T09:22:06.486Z,96472.00
2023-07-29T09:24:35.144Z,96461.00
2023-07-29T09:27:02.429Z,96465.00
2023-07-29T09:29:30.523Z,96453.00
2023-07-29T09:32:21.519Z,96459.00
2023-07-29T09:34:49.078Z,96459.00
2023-07-29T09:37:23.012Z,96459.00
2023-07-29T09:39:51.116Z,96462.00
2023-07-29T09:42:22.861Z,96461.00
2023-07-29T09:44:54.492Z,96471.00
2023-07-29T09:47:23.220Z,96465.00
2023-07-29T09:49:51.288Z,96463.00
2023-07-29T09:52:24.236Z,96461.00
2023-07-29T09:54:51.762Z,96455.00
2023-07-29T09:57:20.210Z,96455.00
2023-07-29T09:59:57.447Z,96464.00
2023-07-29T10:02:26.606Z,96464.00
2023-07-29T10:04:54.436Z,96457.00
2023-07-29T10:07:21.963Z,96459.00
2023-07-29T10:09:50.528Z,96463.00
2023-07-29T10:12:19.142Z,96473.00
2023-07-29T10:14:48.197Z,96467.00
2023-07-29T10:17:17.444Z,96468.00
2023-07-29T10:19:46.142Z,96457.00
2023-07-29T10:22:14.298Z,96469.00
2023-07-29T10:24:43.392Z,96473.00
2023-07-29T10:27:12.947Z,96480.00
2023-07-29T10:29:40.762Z,96474.00
2023-07-29T10:32:08.981Z,96471.00
2023-07-29T10:34:37.650Z,96478.00
2023-07-29T10:37:05.357Z,96478.00
2023-07-29T10:39:43.596Z,96478.00
2023-07-29T10:42:10.847Z,96490.00
2023-07-29T10:44:47.618Z,96486.00
2023-07-29T10:47:16.069Z,96498.00
2023-07-29T10:50:09.577Z,96484.00
2023-07-29T10:52:36.749Z,96490.00
2023-07-29T10:55:05.129Z,96490.00
2023-07-29T10:57:41.879Z,96485.00
2023-07-29T11:00:09.739Z,96486.00
2023-07-29T11:02:38.000Z,96497.00
2023-07-29T11:05:17.088Z,96502.00
2023-07-29T11:07:48.747Z,96497.00
2023-07-29T11:10:16.759Z,96492.00
2023-07-29T11:12:55.239Z,96484.00
2023-07-29T11:15:27.313Z,96470.00
2023-07-29T11:17:56.817Z,96491.00
2023-07-29T11:20:32.061Z,96485.00
2023-07-29T11:23:03.791Z,96485.00
2023-07-29T11:25:31.928Z,96489.00
2023-07-29T11:28:00.217Z,96486.00
2023-07-29T11:30:28.731Z,96473.00
2023-07-29T11:32:56.742Z,96476.00
2023-07-29T11:35:24.040Z,96474.00
2023-07-29T11:37:52.577Z,96472.00
2023-07-29T11:40:24.071Z,96466.00
2023-07-29T11:42:52.601Z,96472.00
2023-07-29T11:45:27.499Z,96470.00
2023-07-29T11:51:16.553Z,96476.00
2023-07-29T11:54:02.438Z,96470.00
2023-07-29T11:56:35.993Z,96476.00
2023-07-29T11:59:10.208Z,96478.00
2023-07-29T12:01:42.225Z,96462.00
2023-07-29T12:04:21.399Z,96469.00
2023-07-29T12:06:57.777Z,96461.00
2023-07-29T12:09:32.814Z,96456.00
2023-07-29T12:12:10.179Z,96461.00
2023-07-29T12:14:37.446Z,96458.00
2023-07-29T12:17:06.855Z,96462.00
2023-07-29T12:19:35.546Z,96455.00
2023-07-29T12:22:07.571Z,96455.00
2023-07-29T12:24:36.643Z,96454.00
2023-07-29T12:27:03.976Z,96460.00
2023-07-29T12:29:31.264Z,96461.00
2023-07-29T12:32:03.739Z,96456.00
2023-07-29T12:34:32.138Z,96458.00
2023-07-29T12:37:00.477Z,96465.00
2023-07-29T12:39:29.526Z,96458.00
2023-07-29T12:42:01.684Z,96461.00
2023-07-29T12:44:33.913Z,96457.00
2023-07-29T12:47:03.697Z,96461.00
2023-07-29T12:49:31.388Z,96468.00
2023-07-29T12:51:59.134Z,96468.00
2023-07-29T12:54:26.538Z,96455.00
2023-07-29T12:56:54.040Z,96452.00
2023-07-29T12:59:21.296Z,96451.00
2023-07-29T13:01:49.180Z,96447.00
2023-07-29T13:04:16.391Z,96455.00
2023-07-29T13:06:43.645Z,96456.00
2023-07-29T13:09:11.061Z,96456.00
2023-07-29T13:11:38.334Z,96464.00
2023-07-29T13:14:05.611Z,96461.00
2023-07-29T13:16:32.891Z,96468.00
2023-07-29T13:19:00.262Z,96452.00
2023-07-29T13:21:27.454Z,96460.00
2023-07-29T13:23:54.685Z,96460.00
2023-07-29T13:26:21.935Z,96473.00
2023-07-29T13:28:49.166Z,96479.00
2023-07-29T13:31:16.855Z,96487.00
2023-07-29T13:33:44.087Z,96485.00
2023-07-29T13:36:11.381Z,96485.00
2023-07-29T13:38:38.589Z,96494.00
2023-07-29T13:41:06.670Z,96480.00
2023-07-29T13:43:33.929Z,96480.00
2023-07-29T13:46:01.303Z,96485.00
2023-07-29T13:48:28.589Z,96484.00
2023-07-29T13:50:55.866Z,96483.00
2023-07-29T13:53:23.099Z,96491.00
2023-07-29T13:55:50.401Z,96489.00
2023-07-29T13:58:17.617Z,96485.00
2023-07-29T14:00:44.877Z,96478.00
2023-07-29T14:03:12.170Z,96487.00
2023-07-29T14:05:39.441Z,96484.00
2023-07-29T14:08:06.682Z,96474.00
2023-07-29T14:10:33.902Z,96478.00
2023-07-29T14:13:01.126Z,96472.00
2023-07-29T14:15:29.463Z,96466.00
2023-07-29T14:17:56.733Z,96473.00
2023-07-29T14:20:24.093Z,96469.00
2023-07-29T14:22:51.537Z,96479.00
2023-07-29T14:25:19.456Z,96472.00
2023-07-29T14:27:46.652Z,96477.00
2023-07-29T14:30:20.636Z,96479.00
2023-07-29T14:33:01.113Z,96486.00
2023-07-29T14:35:32.087Z,96493.00
2023-07-29T14:38:11.405Z,96498.00
2023-07-29T14:40:38.680Z,96485.00
2023-07-29T14:43:05.888Z,96499.00
2023-07-29T14:45:33.138Z,96490.00
2023-07-29T14:48:00.456Z,96494.00
2023-07-29T14:50:28.016Z,96497.00
2023-07-29T14:52:55.259Z,96497.00
2023-07-29T14:55:22.474Z,96488.00
2023-07-29T14:57:49.674Z,96492.00
2023-07-29T15:00:16.988Z,96501.00
2023-07-29T15:02:44.250Z,96492.00
2023-07-29T15:05:11.550Z,96505.00
2023-07-29T15:07:38.737Z,96500.00
2023-07-29T15:10:06.492Z,96513.00
2023-07-29T15:12:33.748Z,96517.00
2023-07-29T15:15:00.970Z,96536.00
2023-07-29T15:17:28.288Z,96543.00
2023-07-29T15:19:55.533Z,96537.00
2023-07-29T15:22:22.778Z,96522.00
2023-07-29T15:24:50.063Z,96531.00
2023-07-29T15:27:17.294Z,96525.00
2023-07-29T15:29:44.546Z,96512.00
2023-07-29T15:32:12.019Z,96518.00
2023-07-29T15:34:39.234Z,96512.00
2023-07-29T15:37:06.637Z,96509.00
2023-07-29T15:39:33.822Z,96501.00
2023-07-29T15:42:01.072Z,96508.00
2023-07-29T15:44:28.400Z,96516.00
2023-07-29T15:46:57.645Z,96516.00
2023-07-29T15:49:25.178Z,96505.00
2023-07-29T15:51:52.604Z,96514.00
2023-07-29T15:54:19.819Z,96508.00
2023-07-29T15:56:47.078Z,96507.00
2023-07-29T15:59:14.333Z,96504.00
2023-07-29T16:01:41.604Z,96501.00
2023-07-29T16:04:08.837Z,96495.00
2023-07-29T16:06:37.101Z,96499.00
2023-07-29T16:09:07.351Z,96492.00
2023-07-29T16:11:34.937Z,96494.00
2023-07-29T16:14:02.169Z,96496.00
2023-07-29T16:16:30.435Z,96484.00
2023-07-29T16:18:57.941Z,96484.00
2023-07-29T16:21:25.109Z,96488.00
2023-07-29T16:23:53.906Z,96492.00
2023-07-29T16:26:21.754Z,96493.00
2023-07-29T16:28:49.000Z,96498.00
2023-07-29T16:31:16.364Z,96488.00
2023-07-29T16:33:43.626Z,96485.00
2023-07-29T16:36:10.854Z,96493.00
2023-07-29T16:38:38.069Z,96494.00
2023-07-29T16:41:15.857Z,96505.00
2023-07-29T16:43:46.932Z,96500.00
2023-07-29T16:46:14.176Z,96499.00
2023-07-29T16:48:41.414Z,96505.00
2023-07-29T16:51:11.495Z,96502.00
2023-07-29T16:53:38.773Z,96502.00
2023-07-29T16:56:05.993Z,96501.00
2023-07-29T16:58:33.184Z,96501.00
2023-07-29T17:01:00.401Z,96500.00
2023-07-29T17:03:27.759Z,96502.00
2023-07-29T17:05:57.807Z,96503.00
2023-07-29T17:08:25.020Z,96504.00
2023-07-29T17:10:52.231Z,96505.00
2023-07-29T17:13:19.431Z,96511.00
2023-07-29T17:15:48.578Z,96506.00
2023-07-29T17:18:16.103Z,96510.00
2023-07-29T17:20:43.421Z,96505.00
2023-07-29T17:23:10.723Z,96506.00
2023-07-29T17:25:38.128Z,96503.00
2023-07-29T17:28:08.053Z,96503.00
2023-07-29T17:30:38.137Z,96511.00
2023-07-29T17:33:05.481Z,96514.00
2023-07-29T17:35:33.061Z,96517.00
2023-07-29T17:38:01.181Z,96518.00
2023-07-29T17:40:28.667Z,96514.00
2023-07-29T17:42:56.413Z,96509.00
2023-07-29T17:45:25.472Z,96522.00
2023-07-29T17:47:53.113Z,96510.00
2023-07-29T17:50:23.402Z,96523.00
2023-07-29T17:52:52.193Z,96516.00
2023-07-29T17:55:22.293Z,96512.00
2023-07-29T17:57:50.064Z,96515.00
2023-07-29T18:00:20.748Z,96505.00
2023-07-29T18:02:50.285Z,96512.00
2023-07-29T18:05:18.167Z,96510.00
2023-07-29T18:07:45.727Z,96516.00
2023-07-29T18:10:13.379Z,96511.00
2023-07-29T18:12:43.225Z,96515.00
2023-07-29T18:15:11.281Z,96510.00
2023-07-29T18:17:38.878Z,96518.00
2023-07-29T18:20:07.234Z,96519.00
2023-07-29T18:22:34.972Z,96521.00
2023-07-29T18:25:02.192Z,96512.00
2023-07-29T18:27:29.412Z,96513.00
2023-07-29T18:29:56.758Z,96502.00
2023-07-29T18:32:24.008Z,96503.00
2023-07-29T18:34:51.294Z,96505.00
2023-07-29T18:37:18.505Z,96501.00
2023-07-29T18:39:45.741Z,96506.00
2023-07-29T18:42:13.022Z,96501.00
2023-07-29T18:44:40.288Z,96504.00
2023-07-29T18:47:09.196Z,96510.00
2023-07-29T18:49:36.619Z,96507.00
2023-07-29T18:52:03.890Z,96501.00
2023-07-29T18:54:34.783Z,96507.00
2023-07-29T18:57:02.161Z,96511.00
2023-07-29T18:59:29.377Z,96500.00
2023-07-29T19:01:56.676Z,96493.00
2023-07-29T19:04:23.936Z,96495.00
2023-07-29T19:06:56.055Z,96502.00
2023-07-29T19:09:26.224Z,96507.00
2023-07-29T19:11:54.406Z,96510.00
2023-07-29T19:14:22.319Z,96523.00
2023-07-29T19:16:49.661Z,96524.00
2023-07-29T19:19:16.873Z,96522.00
2023-07-29T19:21:44.058Z,96525.00
2023-07-29T19:24:11.260Z,96514.00
2023-07-29T19:26:38.997Z,96515.00
2023-07-29T19:29:06.636Z,96513.00
2023-07-29T19:31:33.856Z,96507.00
2023-07-29T19:34:01.156Z,96511.00
2023-07-29T19:36:33.233Z,96512.00
2023-07-29T19:39:00.632Z,96509.00
2023-07-29T19:41:29.307Z,96511.00
2023-07-29T19:44:02.814Z,96506.00
2023-07-29T19:46:38.211Z,96499.00
2023-07-29T19:49:06.406Z,96507.00
2023-07-29T19:51:33.619Z,96498.00
2023-07-29T19:54:00.881Z,96495.00
2023-07-29T19:56:28.106Z,96487.00
2023-07-29T19:58:55.345Z,96493.00
2023-07-29T20:01:22.663Z,96493.00
2023-07-29T20:03:50.109Z,96507.00
2023-07-29T20:06:17.471Z,96506.00
2023-07-29T20:08:45.097Z,96511.00
2023-07-29T20:11:12.349Z,96522.00
2023-07-29T20:13:39.791Z,96515.00
2023-07-29T20:16:07.067Z,96524.00
2023-07-29T20:18:34.308Z,96527.00
2023-07-29T20:21:01.506Z,96531.00
2023-07-29T20:23:28.731Z,96527.00
2023-07-29T20:25:55.958Z,96536.00
2023-07-29T20:28:23.304Z,96534.00
2023-07-29T20:30:57.854Z,96534.00
2023-07-29T20:33:25.999Z,96532.00
2023-07-29T20:36:00.610Z,96530.00
2023-07-29T20:38:28.020Z,96524.00
2023-07-29T20:40:57.001Z,96516.00
2023-07-29T20:43:25.202Z,96530.00
2023-07-29T20:45:53.966Z,96525.00
2023-07-29T20:48:21.241Z,96542.00
2023-07-29T20:50:48.497Z,96545.00
2023-07-29T20:53:15.781Z,96539.00
2023-07-29T20:55:43.355Z,96554.00
2023-07-29T20:58:10.797Z,96558.00
2023-07-29T21:00:38.288Z,96559.00
2023-07-29T21:03:06.016Z,96559.00
2023-07-29T21:05:37.619Z,96559.00
2023-07-29T21:08:05.083Z,96557.00
2023-07-29T21:10:33.252Z,96559.00
2023-07-29T21:13:00.522Z,96566.00
2023-07-29T21:15:27.811Z,96570.00
2023-07-29T21:17:57.627Z,96580.00
2023-07-29T21:20:24.985Z,96577.00
2023-07-29T21:22:52.337Z,96576.00
2023-07-29T21:25:20.273Z,96579.00
2023-07-29T21:27:48.178Z,96580.00
2023-07-29T21:30:15.999Z,96578.00
2023-07-29T21:32:46.253Z,96594.00
2023-07-29T21:35:14.397Z,96586.00
2023-07-29T21:37:45.366Z,96582.00
2023-07-29T21:40:13.653Z,96586.00
2023-07-29T21:42:42.518Z,96579.00
2023-07-29T21:45:11.297Z,96567.00
2023-07-29T21:47:39.342Z,96559.00
2023-07-29T21:50:07.955Z,96561.00
2023-07-29T21:52:36.028Z,96572.00
2023-07-29T21:55:04.096Z,96574.00
2023-07-29T21:57:31.962Z,96577.00
2023-07-29T21:59:59.912Z,96563.00
2023-07-29T22:02:27.851Z,96564.00
2023-07-29T22:04:56.588Z,96570.00
2023-07-29T22:07:24.755Z,96575.00
2023-07-29T22:09:52.684Z,96576.00
2023-07-29T22:12:20.719Z,96584.00
2023-07-29T22:14:48.667Z,96582.00
2023-07-29T22:17:16.689Z,96586.00
2023-07-29T22:19:45.916Z,96586.00
2023-07-29T22:22:13.830Z,96590.00
2023-07-29T22:24:41.678Z,96585.00
2023-07-29T22:27:09.737Z,96602.00
2023-07-29T22:29:40.678Z,96598.00
2023-07-29T22:32:08.645Z,96606.00
2023-07-29T22:34:36.723Z,96607.00
2023-07-29T22:37:09.419Z,96605.00
2023-07-29T22:39:37.587Z,96599.00
2023-07-29T22:42:11.201Z,96603.00
2023-07-29T22:44:41.596Z,96604.00
2023-07-29T22:47:09.421Z,96598.00
2023-07-29T22:49:41.864Z,96602.00
2023-07-29T22:52:09.832Z,96593.00
2023-07-29T22:54:37.910Z,96581.00
2023-07-29T22:57:06.059Z,96594.00
2023-07-29T22:59:36.797Z,96603.00
2023-07-29T23:02:07.007Z,96600.00
2023-07-29T23:04:34.981Z,96601.00
2023-07-29T23:07:02.864Z,96593.00
2023-07-29T23:09:30.973Z,96601.00
2023-07-29T23:11:58.900Z,96594.00
2023-07-29T23:14:27.783Z,96593.00
2023-07-29T23:16:57.088Z,96592.00
2023-07-29T23:19:25.170Z,96588.00
2023-07-29T23:21:53.279Z,96597.00
2023-07-29T23:24:21.184Z,96596.00
2023-07-29T23:26:51.932Z,96594.00
2023-07-29T23:29:20.415Z,96592.00
2023-07-29T23:31:48.557Z,96595.00
2023-07-29T23:34:29.238Z,96598.00
2023-07-29T23:36:57.232Z,96589.00
2023-07-29T23:39:25.298Z,96591.00
2023-07-29T23:41:53.373Z,96586.00
2023-07-29T23:44:21.420Z,96595.00
2023-07-29T23:46:49.411Z,96589.00
2023-07-29T23:49:19.940Z,96591.00
2023-07-29T23:51:47.904Z,96595.00
2023-07-29T23:54:15.777Z,96593.00
2023-07-29T23:56:43.928Z,96590.00
2023-07-29T23:59:16.790Z,96590.00
